ENNA METAR and TAF weather

Enter ICAO airport designator
Station Type Date Time Source
ENNA METAR 2019/12/05 15:20 UTC NOAA

ENNA 051520Z 17009KT CAVOK M03/M05 Q0971 RMK WIND 1800FT VRB03KT


Station Type Date Time Source
ENNA Decoded METAR 2019/12/05 15:20 UTC NOAA

Banak, Norway (ENNA) 70-04N 024-59E 8M
Dec 05, 2019 - 10:20 AM EST / 2019.12.05 1520 UTC
Wind: from the S (170 degrees) at 10 MPH (9 KT):0
Visibility: greater than 7 mile(s):0
Temperature: 26 F (-3 C)
Windchill: 15 F (-9 C):1
Dew Point: 23 F (-5 C)
Relative Humidity: 86%
Pressure (altimeter): 28.67 in. Hg (0971 hPa)
ob: ENNA 051520Z 17009KT CAVOK M03/M05 Q0971 RMK WIND 1800FT VRB03KT
cycle: 15

Station Type Date Time Source
ENNA TAF 2019/12/05 12:57 UTC NOAA

TAF TAF ENNA 051100Z 0512/0612 18012KT 9999 SCT050
TEMPO 0600/0612 BKN012

Example: see airport list